Saturday, November 18, 2017, 1:28 AM EST
Back to Local

KLCI, Laconia, Laconia Municipal Airport

Location: Laconia, NH, United States Lat: 43.567
Local Time: 1:28 AM EST ( 6:28 GMT) Lon: -71.417
Time Zone: US/Eastern Elev: 544 ft

Show me the last for .
Show Decoded

2017-11-18 00:56 METAR KLCI 180556Z AUTO 23003KT 10SM CLR M03/M11 A2998 RMK AO2 SLP172 T10281106
                 11028 21033 53007 FZRANO =
2017-11-17 23:56 METAR KLCI 180456Z AUTO 24008KT 10SM CLR M03/M09 A2997 RMK AO2 SLP166 T10331094
                 FZRANO =
2017-11-17 22:56 METAR KLCI 180356Z AUTO 25010KT 10SM CLR M03/M11 A2995 RMK AO2 SLP162 T10281106
                 400391028 FZRANO =
2017-11-17 21:56 METAR KLCI 180256Z AUTO 27007KT 10SM CLR M03/M11 A2996 RMK AO2 SLP165 T10281106
                 50001 FZRANO =
2017-11-17 20:56 METAR KLCI 180156Z AUTO 26010G14KT 10SM CLR M03/M09 A2997 RMK AO2 SLP167
                 T10281094 FZRANO =
2017-11-17 19:56 METAR KLCI 180056Z AUTO 27009KT 10SM CLR M03/M08 A2997 RMK AO2 SLP166 T10281083
                 FZRANO =
2017-11-17 18:56 METAR KLCI 172356Z AUTO 25011KT 10SM CLR M03/M08 A2996 RMK AO2 SLP164 T10281078
                 10011 21028 53016 FZRANO =
2017-11-17 17:56 METAR KLCI 172256Z AUTO 27012G19KT 10SM CLR M02/M07 A2994 RMK AO2 SLP156
                 T10221072 FZRANO =
2017-11-17 16:56 METAR KLCI 172156Z AUTO 27013G19KT 10SM CLR M02/M07 A2993 RMK AO2 SLP152
                 T10171067 FZRANO =
2017-11-17 15:56 METAR KLCI 172056Z AUTO 30014G25KT 10SM CLR M01/M07 A2991 RMK AO2 PK WND
                 31026/2014 SLP148 T10061067 53012 FZRANO =
2017-11-17 14:56 METAR KLCI 171956Z AUTO 30019G27KT 10SM FEW028 00/M06 A2989 RMK AO2 PK WND
                 32027/1955 SLP142 T00001061 FZRANO =
2017-11-17 14:41 METAR KLCI 171941Z AUTO 28013G20KT 10SM SCT028 00/M07 A2989 RMK AO2 FZRANO =
2017-11-17 13:56 METAR KLCI 171856Z AUTO 26009G16KT 10SM BKN028 01/M06 A2988 RMK AO2 SLP138
                 T00061056 FZRANO =
2017-11-17 13:42 METAR KLCI 171842Z AUTO 29008G18KT 230V320 10SM BKN028 00/M06 A2988 RMK AO2
                 FZRANO =
2017-11-17 13:17 METAR KLCI 171817Z AUTO 27011G21KT 240V300 10SM FEW028 00/M06 A2988 RMK AO2
                 FZRANO =
2017-11-17 12:56 METAR KLCI 171756Z AUTO 28012G19KT 240V310 10SM BKN028 01/M06 A2987 RMK AO2
                 SLP134 T00061056 10006 20000 57009 FZRANO =
2017-11-17 11:56 METAR KLCI 171656Z AUTO 28011G21KT 260V320 10SM OVC028 01/M06 A2988 RMK AO2
                 SLP137 T00061056 FZRANO =
2017-11-17 10:56 METAR KLCI 171556Z AUTO 28009G17KT 240V300 10SM OVC024 00/M05 A2989 RMK AO2
                 SLP141 T00001050 FZRANO =
2017-11-17 09:56 METAR KLCI 171456Z AUTO 28009G16KT 10SM OVC024 00/M05 A2990 RMK AO2 SLP144
                 T00001050 53023 FZRANO =
2017-11-17 08:56 METAR KLCI 171356Z AUTO 28012G18KT 10SM OVC026 00/M05 A2988 RMK AO2 SLP136
                 T00001050 FZRANO =
2017-11-17 07:56 METAR KLCI 171256Z AUTO 27012G18KT 10SM OVC026 00/M04 A2985 RMK AO2 SLP126
                 T00001044 FZRANO =
2017-11-17 06:56 METAR KLCI 171156Z AUTO 28010G21KT 240V320 10SM BKN026 OVC034 01/M04 A2983 RMK
                 AO2 SLP119 60000 70030 T00061039 10039 20006 51015 FZRANO =
2017-11-17 06:51 METAR KLCI 171151Z AUTO 27009G21KT 10SM BKN026 OVC034 01/M04 A2983 RMK AO2
                 FZRANO =
2017-11-17 05:56 METAR KLCI 171056Z AUTO 28010G17KT 250V310 10SM OVC033 01/M04 A2979 RMK AO2
                 RAE44SNB0958E08 SLP105 P0000 T00061039 FZRANO =
2017-11-17 05:49 METAR KLCI 171049Z AUTO 27007G19KT 10SM SCT029 OVC035 01/M04 A2978 RMK AO2
                 RAE44SNB0958E08 P0000 FZRANO =
2017-11-17 04:56 METAR KLCI 170956Z AUTO 28014G25KT 10SM -RA OVC029 01/M03 A2975 RMK AO2 RAB54
                 SLP092 P0000 T00111033 FZRANO =
2017-11-17 04:53 METAR KLCI 170953Z AUTO 28015G22KT 10SM OVC029 01/M03 A2975 RMK AO2 FZRANO =
2017-11-17 03:56 METAR KLCI 170856Z AUTO 28012G22KT 10SM OVC033 02/M03 A2972 RMK AO2 PK WND
                 26027/0758 SLP084 T00221028 53008 FZRANO =
2017-11-17 02:56 METAR KLCI 170756Z AUTO 27008G20KT 10SM FEW025 02/M01 A2969 RMK AO2 PK WND
                 25026/0745 SLP076 T00221011 FZRANO =
2017-11-17 02:52 METAR KLCI 170752Z AUTO 27010G26KT 10SM FEW025 02/M02 A2970 RMK AO2 PK WND
                 25026/0745 FZRANO =

Support USWX by starting your Amazon purchase here.